createdAt,value
2023-03-14T00:00:23.683Z,987.59
2023-03-14T00:01:27.027Z,987.56
2023-03-14T00:02:30.296Z,987.56
2023-03-14T00:04:05.524Z,987.59
2023-03-14T00:05:08.491Z,987.64
2023-03-14T00:06:11.451Z,987.61
2023-03-14T00:07:46.302Z,987.67
2023-03-14T00:08:49.856Z,987.66
2023-03-14T00:09:53.025Z,987.61
2023-03-14T00:11:27.875Z,987.64
2023-03-14T00:12:31.025Z,987.66
2023-03-14T00:13:33.960Z,987.70
2023-03-14T00:15:08.842Z,987.59
2023-03-14T00:16:12.085Z,987.72
2023-03-14T00:17:15.165Z,987.56
2023-03-14T00:18:50.326Z,987.55
2023-03-14T00:19:53.484Z,987.65
2023-03-14T00:20:56.431Z,987.64
2023-03-14T00:22:31.292Z,987.61
2023-03-14T00:23:34.326Z,987.65
2023-03-14T00:24:37.330Z,987.64
2023-03-14T00:26:12.143Z,987.62
2023-03-14T00:27:15.199Z,987.59
2023-03-14T00:28:18.038Z,987.60
2023-03-14T00:29:53.297Z,987.68
2023-03-14T00:30:56.435Z,987.65
2023-03-14T00:31:59.651Z,987.65
2023-03-14T00:33:34.881Z,987.65
2023-03-14T00:34:38.000Z,987.61
2023-03-14T00:35:40.948Z,987.71
2023-03-14T00:37:15.883Z,987.72
2023-03-14T00:38:18.943Z,987.78
2023-03-14T00:39:21.932Z,987.75
2023-03-14T00:40:56.790Z,987.75
2023-03-14T00:41:59.717Z,987.70
2023-03-14T00:43:02.796Z,987.75
2023-03-14T00:44:37.834Z,987.70
2023-03-14T00:45:40.730Z,987.68
2023-03-14T00:46:46.371Z,987.71
2023-03-14T00:48:21.639Z,987.65
2023-03-14T00:49:24.639Z,987.73
2023-03-14T00:50:27.729Z,987.64
2023-03-14T00:52:02.596Z,987.62
2023-03-14T00:53:05.568Z,987.69
2023-03-14T00:54:08.575Z,987.60
2023-03-14T00:55:43.475Z,987.62
2023-03-14T00:56:46.367Z,987.65
2023-03-14T00:57:49.177Z,987.57
2023-03-14T00:59:23.817Z,987.62
2023-03-14T01:00:23.205Z,987.63
2023-03-14T01:01:26.080Z,987.57
2023-03-14T01:02:29.471Z,987.61
2023-03-14T01:04:04.800Z,987.61
2023-03-14T01:05:07.956Z,987.66
2023-03-14T01:06:11.018Z,987.63
2023-03-14T01:07:45.872Z,987.66
2023-03-14T01:08:48.934Z,987.66
2023-03-14T01:09:52.004Z,987.58
2023-03-14T01:11:27.024Z,987.70
2023-03-14T01:12:29.840Z,987.73
2023-03-14T01:13:32.613Z,987.66
2023-03-14T01:15:07.392Z,987.72
2023-03-14T01:16:10.396Z,987.78
2023-03-14T01:17:13.495Z,987.77
2023-03-14T01:18:48.103Z,987.78
2023-03-14T01:19:51.315Z,987.79
2023-03-14T01:20:54.676Z,987.76
2023-03-14T01:22:29.616Z,987.78
2023-03-14T01:23:32.707Z,987.75
2023-03-14T01:24:35.633Z,987.80
2023-03-14T01:26:10.655Z,987.75
2023-03-14T01:27:13.845Z,987.77
2023-03-14T01:28:16.564Z,987.83
2023-03-14T01:29:51.343Z,987.86
2023-03-14T01:30:54.397Z,987.82
2023-03-14T01:31:57.759Z,987.82
2023-03-14T01:33:32.725Z,987.87
2023-03-14T01:34:35.584Z,987.87
2023-03-14T01:35:38.549Z,987.96
2023-03-14T01:37:15.909Z,987.93
2023-03-14T01:38:18.912Z,987.93
2023-03-14T01:39:22.043Z,987.96
2023-03-14T01:40:57.453Z,987.89
2023-03-14T01:42:00.416Z,987.89
2023-03-14T01:43:03.609Z,987.96
2023-03-14T01:44:38.509Z,987.96
2023-03-14T01:45:41.653Z,987.97
2023-03-14T01:46:44.837Z,987.90
2023-03-14T01:48:19.953Z,987.97
2023-03-14T01:49:22.716Z,987.97
2023-03-14T01:50:25.619Z,987.97
2023-03-14T01:52:00.619Z,988.03
2023-03-14T01:53:03.432Z,988.07
2023-03-14T01:54:06.422Z,987.97
2023-03-14T01:55:41.444Z,988.02
2023-03-14T01:56:44.519Z,988.04
2023-03-14T01:57:47.505Z,988.06
2023-03-14T01:59:22.324Z,987.97
2023-03-14T02:00:22.985Z,987.99
2023-03-14T02:01:26.064Z,988.00
2023-03-14T02:02:29.246Z,988.00
2023-03-14T02:04:04.571Z,987.99
2023-03-14T02:05:07.465Z,988.02
2023-03-14T02:06:10.481Z,987.97
2023-03-14T02:07:45.343Z,988.02
2023-03-14T02:08:48.259Z,988.04
2023-03-14T02:09:51.208Z,988.01
2023-03-14T02:11:26.234Z,988.02
2023-03-14T02:12:29.262Z,988.03
2023-03-14T02:13:32.115Z,988.07
2023-03-14T02:15:07.092Z,988.10
2023-03-14T02:16:10.533Z,988.09
2023-03-14T02:17:13.870Z,988.09
2023-03-14T02:18:48.783Z,987.95
2023-03-14T02:19:51.726Z,987.94
2023-03-14T02:20:54.672Z,987.91
2023-03-14T02:22:29.720Z,987.93
2023-03-14T02:23:32.499Z,987.91
2023-03-14T02:24:35.270Z,987.87
2023-03-14T02:26:09.946Z,987.79
2023-03-14T02:27:12.938Z,987.81
2023-03-14T02:28:15.923Z,987.76
2023-03-14T02:29:51.048Z,987.74
2023-03-14T02:30:53.893Z,987.69
2023-03-14T02:31:56.932Z,987.73
2023-03-14T02:33:32.031Z,987.74
2023-03-14T02:34:35.006Z,987.78
2023-03-14T02:35:38.185Z,987.79
2023-03-14T02:37:13.365Z,987.76
2023-03-14T02:38:16.197Z,987.80
2023-03-14T02:39:19.389Z,987.75
2023-03-14T02:40:54.028Z,987.87
2023-03-14T02:41:56.857Z,987.83
2023-03-14T02:43:00.025Z,987.76
2023-03-14T02:44:35.042Z,987.77
2023-03-14T02:45:38.294Z,987.79
2023-03-14T02:46:41.601Z,987.85
2023-03-14T02:48:16.564Z,987.82
2023-03-14T02:49:19.706Z,987.83
2023-03-14T02:50:22.749Z,987.89
2023-03-14T02:51:57.639Z,987.87
2023-03-14T02:53:00.393Z,987.88
2023-03-14T02:54:03.281Z,987.83
2023-03-14T02:55:38.309Z,987.83
2023-03-14T02:56:41.139Z,987.82
2023-03-14T02:57:44.020Z,987.85
2023-03-14T02:59:18.674Z,987.72
2023-03-14T03:00:23.659Z,987.72
2023-03-14T03:01:27.256Z,987.69
2023-03-14T03:02:30.529Z,987.69
2023-03-14T03:04:05.762Z,987.72
2023-03-14T03:05:08.740Z,987.71
2023-03-14T03:06:11.736Z,987.73
2023-03-14T03:07:46.633Z,987.74
2023-03-14T03:08:49.583Z,987.71
2023-03-14T03:09:52.388Z,987.73
2023-03-14T03:11:27.195Z,987.70
2023-03-14T03:12:30.124Z,987.74
2023-03-14T03:13:33.122Z,987.70
2023-03-14T03:15:07.823Z,987.71
2023-03-14T03:16:10.613Z,987.67
2023-03-14T03:17:13.958Z,987.75
2023-03-14T03:18:49.017Z,987.75
2023-03-14T03:19:52.070Z,987.75
2023-03-14T03:20:55.183Z,987.67
2023-03-14T03:22:30.033Z,987.72
2023-03-14T03:23:33.018Z,987.67
2023-03-14T03:24:35.982Z,987.67
2023-03-14T03:26:10.808Z,987.60
2023-03-14T03:27:14.086Z,987.63
2023-03-14T03:28:17.021Z,987.63
2023-03-14T03:29:51.879Z,987.58
2023-03-14T03:30:55.122Z,987.61
2023-03-14T03:31:58.436Z,987.61
2023-03-14T03:33:33.377Z,987.62
2023-03-14T03:34:36.325Z,987.60
2023-03-14T03:35:39.731Z,987.54
2023-03-14T03:37:14.900Z,987.58
2023-03-14T03:38:17.913Z,987.59
2023-03-14T03:39:20.875Z,987.58
2023-03-14T03:40:56.014Z,987.56
2023-03-14T03:41:58.920Z,987.55
2023-03-14T03:43:01.769Z,987.55
2023-03-14T03:44:36.503Z,987.57
2023-03-14T03:45:39.255Z,987.59
2023-03-14T03:46:42.560Z,987.50
2023-03-14T03:48:17.177Z,987.53
2023-03-14T03:49:20.074Z,987.51
2023-03-14T03:50:22.846Z,987.50
2023-03-14T03:51:58.148Z,987.48
2023-03-14T03:53:01.238Z,987.51
2023-03-14T03:54:19.813Z,987.47
2023-03-14T03:55:54.589Z,987.45
2023-03-14T03:56:57.644Z,987.41
2023-03-14T03:58:00.768Z,987.47
2023-03-14T03:59:35.758Z,987.50
2023-03-14T04:00:23.276Z,987.49
2023-03-14T04:01:26.726Z,987.43
2023-03-14T04:02:30.630Z,987.47
2023-03-14T04:04:07.215Z,987.50
2023-03-14T04:05:11.188Z,987.53
2023-03-14T04:06:14.283Z,987.46
2023-03-14T04:07:49.256Z,987.48
2023-03-14T04:08:52.396Z,987.47
2023-03-14T04:09:55.410Z,987.48
2023-03-14T04:11:30.236Z,987.48
2023-03-14T04:12:33.555Z,987.46
2023-03-14T04:13:36.864Z,987.53
2023-03-14T04:15:11.779Z,987.48
2023-03-14T04:16:15.090Z,987.54
2023-03-14T04:17:18.268Z,987.50
2023-03-14T04:18:52.928Z,987.52
2023-03-14T04:19:55.771Z,987.47
2023-03-14T04:20:58.691Z,987.50
2023-03-14T04:22:33.454Z,987.41
2023-03-14T04:23:36.533Z,987.42
2023-03-14T04:24:39.486Z,987.45
2023-03-14T04:26:15.164Z,987.45
2023-03-14T04:27:18.184Z,987.44
2023-03-14T04:28:21.095Z,987.45
2023-03-14T04:29:58.289Z,987.46
2023-03-14T04:31:01.415Z,987.40
2023-03-14T04:32:04.773Z,987.41
2023-03-14T04:33:39.832Z,987.36
2023-03-14T04:34:43.776Z,987.36
2023-03-14T04:35:46.708Z,987.30
2023-03-14T04:37:25.653Z,987.32
2023-03-14T04:38:28.501Z,987.35
2023-03-14T04:39:31.341Z,987.35
2023-03-14T04:41:06.053Z,987.28
2023-03-14T04:42:09.055Z,987.29
2023-03-14T04:43:12.041Z,987.21
2023-03-14T04:44:47.173Z,987.23
2023-03-14T04:45:50.059Z,987.20
2023-03-14T04:46:53.287Z,987.22
2023-03-14T04:48:28.278Z,987.19
2023-03-14T04:49:31.196Z,987.22
2023-03-14T04:50:34.254Z,987.31
2023-03-14T04:52:08.834Z,987.26
2023-03-14T04:53:11.950Z,987.27
2023-03-14T04:54:16.422Z,987.27
2023-03-14T04:55:51.394Z,987.23
2023-03-14T04:56:54.274Z,987.30
2023-03-14T04:57:57.128Z,987.24
2023-03-14T04:59:32.051Z,987.28
2023-03-14T05:00:24.110Z,987.22
2023-03-14T05:01:27.154Z,987.21
2023-03-14T05:02:30.584Z,987.19
2023-03-14T05:04:06.192Z,987.18
2023-03-14T05:05:52.878Z,987.14
2023-03-14T05:06:56.223Z,987.12
2023-03-14T05:08:01.463Z,987.12
2023-03-14T05:09:36.755Z,987.08
2023-03-14T05:10:39.887Z,987.08
2023-03-14T05:11:43.084Z,987.10
2023-03-14T05:13:18.201Z,987.08
2023-03-14T05:14:21.311Z,987.07
2023-03-14T05:15:24.478Z,987.06
2023-03-14T05:17:00.133Z,987.01
2023-03-14T05:18:03.279Z,987.06
2023-03-14T05:19:06.371Z,987.01
2023-03-14T05:20:41.904Z,987.01
2023-03-14T05:21:45.032Z,986.99
2023-03-14T05:22:48.217Z,986.96
2023-03-14T05:24:23.499Z,987.01
2023-03-14T05:25:26.590Z,986.99
2023-03-14T05:26:30.005Z,987.04
2023-03-14T05:28:04.906Z,986.97
2023-03-14T05:29:07.886Z,986.98
2023-03-14T05:30:10.847Z,986.99
2023-03-14T05:31:46.206Z,987.02
2023-03-14T05:32:49.577Z,987.12
2023-03-14T05:33:52.798Z,987.07
2023-03-14T05:35:28.168Z,987.11
2023-03-14T05:36:31.260Z,987.11
2023-03-14T05:37:34.821Z,987.12
2023-03-14T05:39:09.995Z,987.00
2023-03-14T05:40:12.869Z,987.03
2023-03-14T05:41:15.794Z,987.00
2023-03-14T05:42:50.557Z,986.96
2023-03-14T05:43:53.690Z,986.99
2023-03-14T05:44:56.706Z,987.04
2023-03-14T05:46:33.439Z,986.96
2023-03-14T05:47:36.688Z,986.97
2023-03-14T05:48:39.581Z,986.98
2023-03-14T05:50:14.585Z,987.01
2023-03-14T05:51:17.532Z,987.06
2023-03-14T05:52:20.485Z,987.06
2023-03-14T05:53:55.492Z,987.05
2023-03-14T05:54:58.607Z,987.06
2023-03-14T05:56:03.896Z,987.12
2023-03-14T05:57:38.844Z,987.08
2023-03-14T05:58:42.084Z,987.01
2023-03-14T05:59:45.076Z,987.11
2023-03-14T06:00:23.210Z,987.11
2023-03-14T06:01:26.146Z,987.05
2023-03-14T06:02:29.622Z,987.12
2023-03-14T06:04:05.556Z,987.05
2023-03-14T06:05:08.510Z,987.12
2023-03-14T06:06:11.846Z,987.04
2023-03-14T06:07:46.976Z,987.06
2023-03-14T06:08:49.958Z,987.06
2023-03-14T06:09:53.072Z,987.06
2023-03-14T06:11:28.001Z,987.06
2023-03-14T06:12:31.228Z,987.02
2023-03-14T06:13:34.566Z,987.03
2023-03-14T06:15:09.498Z,987.00
2023-03-14T06:16:12.693Z,987.04
2023-03-14T06:17:15.896Z,987.02
2023-03-14T06:18:51.199Z,987.02
2023-03-14T06:19:54.106Z,987.08
2023-03-14T06:20:57.292Z,987.06
2023-03-14T06:22:32.394Z,987.04
2023-03-14T06:23:35.502Z,987.02
2023-03-14T06:24:38.568Z,987.05
2023-03-14T06:26:13.458Z,987.02
2023-03-14T06:27:16.437Z,987.00
2023-03-14T06:28:19.581Z,987.04
2023-03-14T06:29:55.810Z,987.06
2023-03-14T06:30:59.169Z,987.04
2023-03-14T06:32:02.391Z,987.05
2023-03-14T06:33:37.864Z,987.04
2023-03-14T06:34:40.797Z,987.03
2023-03-14T06:35:44.046Z,987.05
2023-03-14T06:37:21.007Z,987.07
2023-03-14T06:38:24.169Z,987.08
2023-03-14T06:39:27.126Z,987.02
2023-03-14T06:41:02.100Z,987.12
2023-03-14T06:42:05.034Z,987.09
2023-03-14T06:43:07.994Z,987.05
2023-03-14T06:44:42.947Z,987.00
2023-03-14T06:45:45.988Z,986.97
2023-03-14T06:46:49.380Z,987.07
2023-03-14T06:48:24.207Z,986.97
2023-03-14T06:49:27.135Z,987.03
2023-03-14T06:50:30.158Z,987.00
2023-03-14T06:52:04.860Z,987.03
2023-03-14T06:53:08.032Z,986.98
2023-03-14T06:54:11.244Z,987.00
2023-03-14T06:55:46.346Z,987.08
2023-03-14T06:56:49.474Z,987.06
2023-03-14T06:57:52.652Z,987.04
2023-03-14T06:59:27.593Z,986.99
2023-03-14T07:00:23.993Z,987.07
2023-03-14T07:01:27.451Z,986.98
2023-03-14T07:02:48.828Z,987.05
2023-03-14T07:04:23.876Z,987.12
2023-03-14T07:05:27.377Z,987.08
2023-03-14T07:06:30.194Z,987.11
2023-03-14T07:08:05.084Z,987.18
2023-03-14T07:09:09.773Z,987.23
2023-03-14T07:10:12.763Z,987.28
2023-03-14T07:11:48.334Z,987.28
2023-03-14T07:12:51.437Z,987.25
2023-03-14T07:13:54.274Z,987.30
2023-03-14T07:15:30.945Z,987.33
2023-03-14T07:16:34.354Z,987.27
2023-03-14T07:17:37.368Z,987.31
2023-03-14T07:19:12.451Z,987.35
2023-03-14T07:20:15.640Z,987.32
2023-03-14T07:21:18.667Z,987.27
2023-03-14T07:22:53.641Z,987.30
2023-03-14T07:23:56.524Z,987.31
2023-03-14T07:24:59.245Z,987.40
2023-03-14T07:26:33.982Z,987.49
2023-03-14T07:27:36.876Z,987.75
2023-03-14T07:28:40.024Z,987.94
2023-03-14T07:30:14.851Z,988.09
2023-03-14T07:31:17.988Z,988.19
2023-03-14T07:32:21.710Z,988.32
2023-03-14T07:33:57.903Z,988.39
2023-03-14T07:35:00.746Z,988.43
2023-03-14T07:36:03.801Z,988.49
2023-03-14T07:37:38.748Z,988.49
2023-03-14T07:38:41.874Z,988.53
2023-03-14T07:39:44.697Z,988.51
2023-03-14T07:41:19.498Z,988.64
2023-03-14T07:42:22.643Z,988.65
2023-03-14T07:43:25.538Z,988.70
2023-03-14T07:45:00.513Z,988.85
2023-03-14T07:46:10.719Z,988.88
2023-03-14T07:47:14.101Z,988.90
2023-03-14T07:48:48.983Z,989.00
2023-03-14T07:49:52.087Z,989.02
2023-03-14T07:50:55.095Z,989.00
2023-03-14T07:52:30.210Z,989.13
2023-03-14T07:53:33.147Z,989.12
2023-03-14T07:54:36.154Z,989.20
2023-03-14T07:56:11.336Z,989.17
2023-03-14T07:57:14.270Z,989.22
2023-03-14T07:58:17.197Z,989.28
2023-03-14T07:59:51.903Z,989.28
2023-03-14T08:00:26.894Z,989.31
2023-03-14T08:01:29.881Z,989.31
2023-03-14T08:02:33.285Z,989.39
2023-03-14T08:04:08.698Z,989.45
2023-03-14T08:05:11.790Z,989.49
2023-03-14T08:06:14.918Z,989.50
2023-03-14T08:07:49.780Z,989.59
2023-03-14T08:08:52.844Z,989.58
2023-03-14T08:09:55.675Z,989.68
2023-03-14T08:11:30.600Z,989.66
2023-03-14T08:12:33.343Z,989.73
2023-03-14T08:13:36.191Z,989.81
2023-03-14T08:15:11.082Z,989.80
2023-03-14T08:16:14.406Z,989.90
2023-03-14T08:17:17.803Z,989.94
2023-03-14T08:18:52.943Z,990.06
2023-03-14T08:19:56.449Z,990.11
2023-03-14T08:20:59.641Z,990.11
2023-03-14T08:22:34.543Z,990.21
2023-03-14T08:23:37.570Z,990.21
2023-03-14T08:24:40.493Z,990.26
2023-03-14T08:26:15.610Z,990.37
2023-03-14T08:27:22.142Z,990.50
2023-03-14T08:28:24.933Z,990.54
2023-03-14T08:29:59.674Z,990.63
2023-03-14T08:31:03.216Z,990.73
2023-03-14T08:32:07.203Z,990.74
2023-03-14T08:33:42.441Z,990.77
2023-03-14T08:34:45.229Z,990.86
2023-03-14T08:35:48.374Z,990.99
2023-03-14T08:37:37.701Z,991.02
2023-03-14T08:38:40.894Z,991.07
2023-03-14T08:39:43.936Z,991.17
2023-03-14T08:41:18.959Z,991.11
2023-03-14T08:42:21.969Z,991.23
2023-03-14T08:43:25.081Z,991.36
2023-03-14T08:45:00.394Z,991.46
2023-03-14T08:46:03.414Z,991.40
2023-03-14T08:47:06.587Z,991.53
2023-03-14T08:48:41.585Z,991.61
2023-03-14T08:49:44.821Z,991.62
2023-03-14T08:50:48.189Z,991.67
2023-03-14T08:52:22.862Z,991.76
2023-03-14T08:53:25.928Z,991.88
2023-03-14T08:54:29.046Z,991.87
2023-03-14T08:56:04.028Z,991.92
2023-03-14T08:57:07.068Z,991.92
2023-03-14T08:58:10.010Z,991.98
2023-03-14T08:59:45.149Z,992.08
2023-03-14T09:00:23.298Z,992.13
2023-03-14T09:01:26.548Z,992.04
2023-03-14T09:02:29.963Z,992.25
2023-03-14T09:04:05.510Z,992.21
2023-03-14T09:05:08.489Z,992.15
2023-03-14T09:06:11.329Z,992.34
2023-03-14T09:07:46.215Z,992.40
2023-03-14T09:08:50.938Z,992.46
2023-03-14T09:09:53.793Z,992.48
2023-03-14T09:11:28.716Z,992.58
2023-03-14T09:12:31.809Z,992.59
2023-03-14T09:13:35.023Z,992.61
2023-03-14T09:15:09.797Z,992.71
2023-03-14T09:16:12.948Z,992.72
2023-03-14T09:17:16.110Z,992.84
2023-03-14T09:18:51.092Z,992.83
2023-03-14T09:19:54.126Z,992.90
2023-03-14T09:20:58.243Z,993.00
2023-03-14T09:22:32.975Z,993.07
2023-03-14T09:23:35.772Z,993.08
2023-03-14T09:24:38.567Z,993.18
2023-03-14T09:26:13.463Z,993.22
2023-03-14T09:27:16.305Z,993.26
2023-03-14T09:28:19.319Z,993.35
2023-03-14T09:29:55.949Z,993.39
2023-03-14T09:30:58.897Z,993.49
2023-03-14T09:32:02.263Z,993.46
2023-03-14T09:33:37.907Z,993.49
2023-03-14T09:34:42.631Z,993.50
2023-03-14T09:35:45.661Z,993.58
2023-03-14T09:37:20.459Z,993.70
2023-03-14T09:38:23.490Z,993.65
2023-03-14T09:39:26.493Z,993.72
2023-03-14T09:41:03.862Z,993.77
2023-03-14T09:42:06.676Z,993.72
2023-03-14T09:43:09.416Z,993.84
2023-03-14T09:44:44.209Z,993.85
2023-03-14T09:45:47.558Z,993.92
2023-03-14T09:46:50.919Z,993.99
2023-03-14T09:48:42.921Z,994.04
2023-03-14T09:49:46.033Z,994.12
2023-03-14T09:50:49.042Z,994.14
2023-03-14T09:52:24.004Z,994.20
2023-03-14T09:53:26.993Z,994.19
2023-03-14T09:54:29.904Z,994.33
2023-03-14T09:56:05.138Z,994.34
2023-03-14T09:57:08.035Z,994.30
2023-03-14T09:58:10.900Z,994.40
2023-03-14T09:59:45.967Z,994.42
2023-03-14T10:00:23.724Z,994.47
2023-03-14T10:01:26.977Z,994.51
2023-03-14T10:02:30.909Z,994.54
2023-03-14T10:04:06.199Z,994.56
2023-03-14T10:05:12.842Z,994.61
2023-03-14T10:06:15.899Z,994.60
2023-03-14T10:07:51.233Z,994.61
2023-03-14T10:08:54.214Z,994.70
2023-03-14T10:09:57.311Z,994.83
2023-03-14T10:11:32.182Z,994.78
2023-03-14T10:12:35.398Z,994.81
2023-03-14T10:13:41.044Z,994.84
2023-03-14T10:15:15.857Z,994.95
2023-03-14T10:16:18.645Z,994.95
2023-03-14T10:17:21.875Z,994.97
2023-03-14T10:18:56.724Z,995.11
2023-03-14T10:19:59.816Z,995.08
2023-03-14T10:21:02.739Z,995.11
2023-03-14T10:22:37.710Z,995.24
2023-03-14T10:23:40.759Z,995.24
2023-03-14T10:24:47.480Z,995.30
2023-03-14T10:26:22.430Z,995.33
2023-03-14T10:27:25.353Z,995.43
2023-03-14T10:28:28.126Z,995.44
2023-03-14T10:30:05.468Z,995.58
2023-03-14T10:31:08.760Z,995.65
2023-03-14T10:32:11.642Z,995.76
2023-03-14T10:33:47.450Z,995.80
2023-03-14T10:34:50.486Z,995.90
2023-03-14T10:35:53.588Z,995.86
2023-03-14T10:37:32.906Z,996.00
2023-03-14T10:38:35.930Z,996.10
2023-03-14T10:39:39.119Z,996.16
2023-03-14T10:41:14.324Z,996.11
2023-03-14T10:42:17.428Z,996.14
2023-03-14T10:43:20.530Z,996.21
2023-03-14T10:44:55.424Z,996.22
2023-03-14T10:45:58.308Z,996.28
2023-03-14T10:47:01.367Z,996.31
2023-03-14T10:48:36.702Z,996.39
2023-03-14T10:49:39.928Z,996.48
2023-03-14T10:50:42.890Z,996.53
2023-03-14T10:52:17.686Z,996.58
2023-03-14T10:53:52.841Z,996.63
2023-03-14T10:54:55.845Z,996.66
2023-03-14T10:56:30.764Z,996.78
2023-03-14T10:57:33.627Z,996.73
2023-03-14T10:58:38.868Z,996.78
2023-03-14T11:00:23.598Z,996.93
2023-03-14T11:01:26.858Z,996.93
2023-03-14T11:02:30.255Z,997.01
2023-03-14T11:04:05.181Z,997.04
2023-03-14T11:05:08.864Z,997.12
2023-03-14T11:06:11.682Z,997.16
2023-03-14T11:07:46.532Z,997.23
2023-03-14T11:08:49.419Z,997.33
2023-03-14T11:09:52.308Z,997.27
2023-03-14T11:11:27.133Z,997.40
2023-03-14T11:12:30.124Z,997.41
2023-03-14T11:13:33.153Z,997.44
2023-03-14T11:15:08.127Z,997.51
2023-03-14T11:16:11.575Z,997.55
2023-03-14T11:17:14.889Z,997.61
2023-03-14T11:18:49.630Z,997.61
2023-03-14T11:19:52.711Z,997.70
2023-03-14T11:20:55.652Z,997.67
2023-03-14T11:22:30.249Z,997.79
2023-03-14T11:23:33.179Z,997.79
2023-03-14T11:24:35.986Z,997.85
2023-03-14T11:26:10.739Z,997.84
2023-03-14T11:27:13.806Z,997.83
2023-03-14T11:28:17.065Z,997.89
2023-03-14T11:29:51.792Z,997.99
2023-03-14T11:30:54.808Z,998.02
2023-03-14T11:31:58.172Z,998.08
2023-03-14T11:33:34.253Z,998.03
2023-03-14T11:34:37.729Z,998.05
2023-03-14T11:35:44.572Z,998.10
2023-03-14T11:37:19.827Z,998.06
2023-03-14T11:38:22.840Z,998.27
2023-03-14T11:39:26.235Z,998.25
2023-03-14T11:41:01.518Z,998.31
2023-03-14T11:42:05.858Z,998.42
2023-03-14T11:43:09.498Z,998.38
2023-03-14T11:44:44.573Z,998.47
2023-03-14T11:45:47.712Z,998.47
2023-03-14T11:46:51.407Z,998.53
2023-03-14T11:48:30.457Z,998.59
2023-03-14T11:49:33.702Z,998.59
2023-03-14T11:50:37.239Z,998.69
2023-03-14T11:52:12.521Z,998.67
2023-03-14T11:53:15.303Z,998.66
2023-03-14T11:54:18.256Z,998.72
2023-03-14T11:55:53.047Z,998.69
2023-03-14T11:56:55.891Z,998.69
2023-03-14T11:57:58.744Z,998.67
2023-03-14T11:59:35.617Z,998.64
2023-03-14T12:00:23.069Z,998.76
2023-03-14T12:01:25.915Z,998.88
2023-03-14T12:02:29.337Z,998.75
2023-03-14T12:04:04.637Z,998.83
2023-03-14T12:05:08.242Z,998.83
2023-03-14T12:06:11.163Z,998.96
2023-03-14T12:07:46.264Z,999.05
2023-03-14T12:08:49.256Z,999.04
2023-03-14T12:09:52.234Z,999.14
2023-03-14T12:11:30.533Z,999.23
2023-03-14T12:12:33.463Z,999.19
2023-03-14T12:13:36.326Z,999.34
2023-03-14T12:15:10.976Z,999.25
2023-03-14T12:16:14.056Z,999.29
2023-03-14T12:17:17.409Z,999.22
2023-03-14T12:18:52.743Z,999.24
2023-03-14T12:19:55.832Z,999.36
2023-03-14T12:20:58.934Z,999.27
2023-03-14T12:22:33.843Z,999.30
2023-03-14T12:23:36.870Z,999.30
2023-03-14T12:24:43.207Z,999.51
2023-03-14T12:26:18.175Z,999.53
2023-03-14T12:27:20.953Z,999.48
2023-03-14T12:28:23.832Z,999.54
2023-03-14T12:29:58.575Z,999.76
2023-03-14T12:31:02.271Z,999.69
2023-03-14T12:32:05.347Z,999.65
2023-03-14T12:33:40.825Z,999.70
2023-03-14T12:34:44.202Z,999.80
2023-03-14T12:35:47.400Z,999.82
2023-03-14T12:37:22.879Z,999.92
2023-03-14T12:38:25.930Z,999.85
2023-03-14T12:39:28.901Z,999.88
2023-03-14T12:41:04.932Z,999.93
2023-03-14T12:42:07.864Z,999.98
2023-03-14T12:43:21.680Z,1000.04
2023-03-14T12:44:56.420Z,1000.10
2023-03-14T12:45:59.595Z,1000.05
2023-03-14T12:47:03.148Z,1000.12
2023-03-14T12:48:38.285Z,1000.15
2023-03-14T12:49:41.301Z,1000.14
2023-03-14T12:50:44.595Z,1000.12
2023-03-14T12:52:19.688Z,1000.20
2023-03-14T12:53:22.653Z,1000.31
2023-03-14T12:54:25.519Z,1000.28
2023-03-14T12:56:00.450Z,1000.41
2023-03-14T12:57:03.636Z,1000.35
2023-03-14T12:58:06.590Z,1000.28
2023-03-14T12:59:42.684Z,1000.31
2023-03-14T13:00:23.637Z,1000.35
2023-03-14T13:01:26.874Z,1000.38
2023-03-14T13:02:29.843Z,1000.31
2023-03-14T13:04:04.736Z,1000.35
2023-03-14T13:05:26.520Z,1000.43
2023-03-14T13:06:29.736Z,1000.47
2023-03-14T13:08:04.634Z,1000.51
2023-03-14T13:09:07.537Z,1000.49
2023-03-14T13:10:11.250Z,1000.61
2023-03-14T13:11:46.523Z,1000.62
2023-03-14T13:12:49.475Z,1000.64
2023-03-14T13:13:53.389Z,1000.75
2023-03-14T13:15:28.076Z,1000.66
2023-03-14T13:16:31.251Z,1000.82
2023-03-14T13:17:47.812Z,1000.73
2023-03-14T13:19:22.516Z,1000.82
2023-03-14T13:20:25.467Z,1000.84
2023-03-14T13:21:28.499Z,1000.91
2023-03-14T13:23:03.252Z,1000.98
2023-03-14T13:24:06.211Z,1000.96
2023-03-14T13:25:09.178Z,1001.07
2023-03-14T13:26:44.045Z,1001.12
2023-03-14T13:27:47.751Z,1001.17
2023-03-14T13:28:53.781Z,1001.14
2023-03-14T13:30:29.070Z,1001.16
2023-03-14T13:31:32.525Z,1001.27
2023-03-14T13:32:35.627Z,1001.29
2023-03-14T13:34:10.698Z,1001.38
2023-03-14T13:35:14.008Z,1001.30
2023-03-14T13:36:17.843Z,1001.48
2023-03-14T13:38:04.156Z,1001.36
2023-03-14T13:39:13.133Z,1001.44
2023-03-14T13:40:18.586Z,1001.47
2023-03-14T13:41:53.565Z,1001.52
2023-03-14T13:42:57.212Z,1001.68
2023-03-14T13:44:00.133Z,1001.63
2023-03-14T13:45:35.288Z,1001.65
2023-03-14T13:46:38.929Z,1001.68
2023-03-14T13:47:41.983Z,1001.80
2023-03-14T13:49:16.834Z,1001.72
2023-03-14T13:50:20.072Z,1001.76
2023-03-14T13:51:22.863Z,1001.81
2023-03-14T13:52:57.634Z,1001.84
2023-03-14T13:54:01.020Z,1002.02
2023-03-14T13:55:04.005Z,1001.96
2023-03-14T13:56:40.807Z,1001.98
2023-03-14T13:57:43.850Z,1002.00
2023-03-14T13:58:46.821Z,1002.03
2023-03-14T14:00:23.348Z,1002.21
2023-03-14T14:01:26.805Z,1002.20
2023-03-14T14:02:30.687Z,1002.19
2023-03-14T14:04:05.638Z,1002.32
2023-03-14T14:05:09.440Z,1002.28
2023-03-14T14:06:12.552Z,1002.26
2023-03-14T14:07:49.960Z,1002.31
2023-03-14T14:08:52.822Z,1002.29
2023-03-14T14:09:55.813Z,1002.36
2023-03-14T14:11:48.494Z,1002.48
2023-03-14T14:13:12.934Z,1002.54
2023-03-14T14:14:16.232Z,1002.62
2023-03-14T14:15:54.279Z,1002.65
2023-03-14T14:16:59.268Z,1002.60
2023-03-14T14:18:02.380Z,1002.74
2023-03-14T14:19:37.489Z,1002.70
2023-03-14T14:20:41.788Z,1002.77
2023-03-14T14:21:45.654Z,1002.84
2023-03-14T14:23:21.133Z,1002.90
2023-03-14T14:24:24.226Z,1002.87
2023-03-14T14:25:26.984Z,1002.96
2023-03-14T14:27:01.746Z,1002.90
2023-03-14T14:28:04.873Z,1002.98
2023-03-14T14:29:08.041Z,1002.97
2023-03-14T14:30:43.210Z,1003.09
2023-03-14T14:31:46.769Z,1003.05
2023-03-14T14:32:49.923Z,1002.93
2023-03-14T14:34:25.485Z,1003.13
2023-03-14T14:35:28.692Z,1003.20
2023-03-14T14:36:32.073Z,1003.13
2023-03-14T14:38:07.132Z,1003.18
2023-03-14T14:39:10.263Z,1003.23
2023-03-14T14:40:13.441Z,1003.32
2023-03-14T14:41:48.439Z,1003.35
2023-03-14T14:42:51.298Z,1003.23
2023-03-14T14:43:54.181Z,1003.27
2023-03-14T14:45:29.211Z,1003.38
2023-03-14T14:46:32.492Z,1003.39
2023-03-14T14:47:36.734Z,1003.29
2023-03-14T14:49:11.523Z,1003.39
2023-03-14T14:50:14.468Z,1003.31
2023-03-14T14:51:17.614Z,1003.34
2023-03-14T14:52:52.722Z,1003.34
2023-03-14T14:53:55.698Z,1003.32
2023-03-14T14:54:58.765Z,1003.45
2023-03-14T14:56:33.799Z,1003.46
2023-03-14T14:57:37.075Z,1003.47
2023-03-14T14:58:40.118Z,1003.49
2023-03-14T15:00:23.939Z,1003.59
2023-03-14T15:01:26.960Z,1003.55
2023-03-14T15:02:30.183Z,1003.61
2023-03-14T15:04:05.559Z,1003.59
2023-03-14T15:05:08.483Z,1003.68
2023-03-14T15:06:11.365Z,1003.68
2023-03-14T15:07:46.343Z,1003.75
2023-03-14T15:08:49.460Z,1003.76
2023-03-14T15:09:52.489Z,1003.73
2023-03-14T15:11:28.110Z,1003.82
2023-03-14T15:12:31.317Z,1003.86
2023-03-14T15:13:34.303Z,1003.87
2023-03-14T15:15:09.198Z,1003.81